createdAt,value
2023-03-21T00:01:53.942Z,15.82
2023-03-21T00:04:28.426Z,11.75
2023-03-21T00:06:56.849Z,15.48
2023-03-21T00:09:23.682Z,12.43
2023-03-21T00:11:50.610Z,14.60
2023-03-21T00:14:19.093Z,12.18
2023-03-21T00:16:51.291Z,14.98
2023-03-21T00:19:22.106Z,11.45
2023-03-21T00:22:06.549Z,10.73
2023-03-21T00:24:35.652Z,13.27
2023-03-21T00:29:49.805Z,15.88
2023-03-21T00:32:18.118Z,12.77
2023-03-21T00:34:58.829Z,10.07
2023-03-21T00:37:29.667Z,10.40
2023-03-21T00:39:56.512Z,11.75
2023-03-21T00:42:24.116Z,12.50
2023-03-21T00:44:50.996Z,13.70
2023-03-21T00:47:17.829Z,10.13
2023-03-21T00:49:44.689Z,10.55
2023-03-21T00:52:18.640Z,13.52
2023-03-21T00:54:49.238Z,11.60
2023-03-21T00:57:16.784Z,10.77
2023-03-21T00:59:43.621Z,8.32
2023-03-21T01:02:15.097Z,7.63
2023-03-21T01:04:42.222Z,12.10
2023-03-21T01:07:09.006Z,7.40
2023-03-21T01:09:35.843Z,11.63
2023-03-21T01:12:04.001Z,8.13
2023-03-21T01:14:30.888Z,9.95
2023-03-21T01:16:57.668Z,9.82
2023-03-21T01:19:48.286Z,9.10
2023-03-21T01:22:15.751Z,9.80
2023-03-21T01:24:52.446Z,6.47
2023-03-21T01:27:22.321Z,11.60
2023-03-21T01:29:49.232Z,8.73
2023-03-21T01:32:16.877Z,8.45
2023-03-21T01:34:43.838Z,7.40
2023-03-21T01:37:10.651Z,6.70
2023-03-21T01:39:37.544Z,9.30
2023-03-21T01:42:04.597Z,6.03
2023-03-21T01:44:31.818Z,5.95
2023-03-21T01:47:10.420Z,8.13
2023-03-21T01:49:48.595Z,7.90
2023-03-21T01:52:35.758Z,4.93
2023-03-21T01:55:07.330Z,4.82
2023-03-21T01:57:51.871Z,6.75
2023-03-21T02:00:25.223Z,7.35
2023-03-21T02:02:58.175Z,10.65
2023-03-21T02:05:40.771Z,8.48
2023-03-21T02:08:08.024Z,5.22
2023-03-21T02:10:36.605Z,4.97
2023-03-21T02:13:08.398Z,6.22
2023-03-21T02:15:42.380Z,7.63
2023-03-21T02:18:37.648Z,6.85
2023-03-21T02:21:10.850Z,4.10
2023-03-21T02:24:26.582Z,6.95
2023-03-21T02:27:14.605Z,6.63
2023-03-21T02:30:37.511Z,9.75
2023-03-21T02:34:03.386Z,7.40
2023-03-21T02:37:11.548Z,10.05
2023-03-21T02:39:53.750Z,7.90
2023-03-21T02:43:00.024Z,8.73
2023-03-21T02:45:57.241Z,12.25
2023-03-21T02:48:41.304Z,10.15
2023-03-21T02:51:16.566Z,12.73
2023-03-21T02:53:55.009Z,8.52
2023-03-21T02:56:33.788Z,9.65
2023-03-21T02:59:01.788Z,9.50
2023-03-21T03:01:29.177Z,15.55
2023-03-21T03:03:56.405Z,9.93
2023-03-21T03:06:29.549Z,7.80
2023-03-21T03:09:11.722Z,9.45
2023-03-21T03:11:43.682Z,6.78
2023-03-21T03:15:02.272Z,11.52
2023-03-21T03:17:43.561Z,10.70
2023-03-21T03:20:33.402Z,9.02
2023-03-21T03:23:30.469Z,8.90
2023-03-21T03:26:12.541Z,10.18
2023-03-21T03:28:46.266Z,8.32
2023-03-21T03:31:22.108Z,10.38
2023-03-21T03:33:54.797Z,7.00
2023-03-21T03:36:32.789Z,9.68
2023-03-21T03:39:04.782Z,8.18
2023-03-21T03:42:03.040Z,8.48
2023-03-21T03:44:26.193Z,11.80
2023-03-21T03:47:29.896Z,6.97
2023-03-21T03:50:13.287Z,11.73
2023-03-21T03:53:18.129Z,11.05
2023-03-21T03:55:46.654Z,7.40
2023-03-21T03:58:22.763Z,8.73
2023-03-21T04:00:52.966Z,5.72
2023-03-21T04:03:19.923Z,8.70
2023-03-21T04:05:46.790Z,8.90
2023-03-21T04:08:15.515Z,11.65
2023-03-21T04:10:42.995Z,11.88
2023-03-21T04:13:11.108Z,9.35
2023-03-21T04:15:38.206Z,11.80
2023-03-21T04:18:05.862Z,9.52
2023-03-21T04:20:37.315Z,12.80
2023-03-21T04:23:05.795Z,10.35
2023-03-21T04:25:44.675Z,16.42
2023-03-21T04:28:14.783Z,12.90
2023-03-21T04:30:51.885Z,15.95
2023-03-21T04:33:26.330Z,12.30
2023-03-21T04:35:56.418Z,17.48
2023-03-21T04:38:25.293Z,16.48
2023-03-21T04:40:52.724Z,15.63
2023-03-21T04:43:19.597Z,15.32
2023-03-21T04:45:46.426Z,15.50
2023-03-21T04:48:14.625Z,15.52
2023-03-21T04:50:41.437Z,11.75
2023-03-21T04:53:08.247Z,13.55
2023-03-21T04:55:37.204Z,16.15
2023-03-21T04:58:04.990Z,16.88
2023-03-21T05:00:32.971Z,12.95
2023-03-21T05:03:00.305Z,13.50
2023-03-21T05:05:27.230Z,12.57
2023-03-21T05:07:54.049Z,12.85
2023-03-21T05:10:20.894Z,13.75
2023-03-21T05:12:47.634Z,11.10
2023-03-21T05:15:14.475Z,11.80
2023-03-21T05:17:42.867Z,15.30
2023-03-21T05:20:11.839Z,14.30
2023-03-21T05:22:40.663Z,13.65
2023-03-21T05:25:09.969Z,12.93
2023-03-21T05:27:37.071Z,12.85
2023-03-21T05:30:09.029Z,10.88
2023-03-21T05:32:36.024Z,15.27
2023-03-21T05:35:03.159Z,11.77
2023-03-21T05:37:29.964Z,10.80
2023-03-21T05:39:56.854Z,9.60
2023-03-21T05:42:23.964Z,10.00
2023-03-21T05:44:51.156Z,10.43
2023-03-21T05:47:18.641Z,9.18
2023-03-21T05:49:47.279Z,9.30
2023-03-21T05:52:14.592Z,9.75
2023-03-21T05:54:42.019Z,8.50
2023-03-21T05:57:09.202Z,9.90
2023-03-21T05:59:36.044Z,8.18
2023-03-21T06:02:03.841Z,10.43
2023-03-21T06:04:31.114Z,8.43
2023-03-21T06:06:57.929Z,11.65
2023-03-21T06:09:26.192Z,6.60
2023-03-21T06:11:55.998Z,9.60
2023-03-21T06:14:24.701Z,6.53
2023-03-21T06:16:54.034Z,9.27
2023-03-21T06:19:22.027Z,7.85
2023-03-21T06:21:50.111Z,8.40
2023-03-21T06:24:18.020Z,8.43
2023-03-21T06:26:46.485Z,8.98
2023-03-21T06:29:13.357Z,11.05
2023-03-21T06:31:40.566Z,10.68
2023-03-21T06:34:07.497Z,13.52
2023-03-21T06:36:34.666Z,10.45
2023-03-21T06:39:01.708Z,7.22
2023-03-21T06:41:28.450Z,10.32
2023-03-21T06:43:55.618Z,8.43
2023-03-21T06:46:22.491Z,7.22
2023-03-21T06:48:49.460Z,10.20
2023-03-21T06:51:16.417Z,9.50
2023-03-21T06:53:44.667Z,10.68
2023-03-21T06:56:13.591Z,12.18
2023-03-21T06:58:41.651Z,10.25
2023-03-21T07:01:09.013Z,11.50
2023-03-21T07:03:35.887Z,9.55
2023-03-21T07:06:14.175Z,13.93
2023-03-21T07:08:41.817Z,14.48
2023-03-21T07:11:09.835Z,12.15
2023-03-21T07:13:37.084Z,11.05
2023-03-21T07:16:04.927Z,10.45
2023-03-21T07:18:31.862Z,11.82
2023-03-21T07:20:59.181Z,10.82
2023-03-21T07:23:27.385Z,15.63
2023-03-21T07:25:54.995Z,17.10
2023-03-21T07:28:23.198Z,16.45
2023-03-21T07:30:59.510Z,14.57
2023-03-21T07:33:27.055Z,14.88
2023-03-21T07:35:58.057Z,14.82
2023-03-21T07:38:26.473Z,18.05
2023-03-21T07:40:54.015Z,17.80
2023-03-21T07:43:20.905Z,15.10
2023-03-21T07:45:47.835Z,17.83
2023-03-21T07:48:15.286Z,16.27
2023-03-21T07:50:42.060Z,15.55
2023-03-21T07:53:09.185Z,13.75
2023-03-21T07:55:36.500Z,11.02
2023-03-21T07:58:04.714Z,13.20
2023-03-21T08:00:32.027Z,16.02
2023-03-21T08:02:59.823Z,10.65
2023-03-21T08:05:35.272Z,12.90
2023-03-21T08:08:03.027Z,12.27
2023-03-21T08:10:30.922Z,14.02
2023-03-21T08:12:58.223Z,12.30
2023-03-21T08:15:25.052Z,16.55
2023-03-21T08:17:52.107Z,16.17
2023-03-21T08:20:22.309Z,12.48
2023-03-21T08:22:49.964Z,13.43
2023-03-21T08:25:19.735Z,15.40
2023-03-21T08:27:48.453Z,10.45
2023-03-21T08:30:22.978Z,13.55
2023-03-21T08:32:50.199Z,13.35
2023-03-21T08:35:19.231Z,23.60
2023-03-21T08:37:46.433Z,15.50
2023-03-21T08:40:18.041Z,12.45
2023-03-21T08:42:46.756Z,14.77
2023-03-21T08:45:16.272Z,13.23
2023-03-21T08:47:43.588Z,11.65
2023-03-21T08:50:15.718Z,14.93
2023-03-21T08:52:43.238Z,8.30
2023-03-21T08:55:11.150Z,13.48
2023-03-21T08:57:38.248Z,12.45
2023-03-21T09:00:13.273Z,17.05
2023-03-21T09:05:19.137Z,9.52
2023-03-21T09:07:46.311Z,7.60
2023-03-21T09:10:21.141Z,9.43
2023-03-21T09:12:51.800Z,7.88
2023-03-21T09:15:22.307Z,10.13
2023-03-21T09:17:53.146Z,7.97
2023-03-21T09:20:26.501Z,5.07
2023-03-21T09:22:54.431Z,5.88
2023-03-21T09:25:21.661Z,5.32
2023-03-21T09:27:48.931Z,3.95
2023-03-21T09:30:26.213Z,5.22
2023-03-21T09:32:55.862Z,5.88
2023-03-21T09:35:24.950Z,4.53
2023-03-21T09:37:51.980Z,3.97
2023-03-21T09:41:13.456Z,5.70
2023-03-21T09:44:27.922Z,6.43
2023-03-21T09:47:06.431Z,7.32
2023-03-21T09:49:42.295Z,5.97
2023-03-21T09:52:48.153Z,4.80
2023-03-21T09:55:25.908Z,4.65
2023-03-21T09:58:05.164Z,5.65
2023-03-21T10:00:42.387Z,6.05
2023-03-21T10:03:27.658Z,4.80
2023-03-21T10:06:00.813Z,4.40
2023-03-21T10:08:37.646Z,4.85
2023-03-21T10:11:14.254Z,6.85
2023-03-21T10:13:48.729Z,5.97
2023-03-21T10:16:38.127Z,4.85
2023-03-21T10:19:14.411Z,3.80
2023-03-21T10:22:03.596Z,4.78
2023-03-21T10:24:34.615Z,7.32
2023-03-21T10:27:03.608Z,5.97
2023-03-21T10:29:43.463Z,7.82
2023-03-21T10:32:14.378Z,3.38
2023-03-21T10:34:47.145Z,6.18
2023-03-21T10:37:14.782Z,5.80
2023-03-21T10:39:45.850Z,8.50
2023-03-21T10:42:24.886Z,4.65
2023-03-21T10:44:55.283Z,5.85
2023-03-21T10:47:30.593Z,6.00
2023-03-21T10:50:09.574Z,8.48
2023-03-21T10:52:49.077Z,6.63
2023-03-21T10:55:23.383Z,10.70
2023-03-21T10:57:59.049Z,5.83
2023-03-21T11:00:34.392Z,7.72
2023-03-21T11:03:03.678Z,7.97
2023-03-21T11:05:41.640Z,7.35
2023-03-21T11:08:19.561Z,7.82
2023-03-21T11:11:03.198Z,8.88
2023-03-21T11:13:43.376Z,8.90
2023-03-21T11:16:11.185Z,9.43
2023-03-21T11:18:50.464Z,7.13
2023-03-21T11:21:17.957Z,9.68
2023-03-21T11:23:52.959Z,10.15
2023-03-21T11:26:27.511Z,8.10
2023-03-21T11:28:55.424Z,10.52
2023-03-21T11:31:25.119Z,12.40
2023-03-21T11:33:57.248Z,9.40
2023-03-21T11:36:24.270Z,7.80
2023-03-21T11:38:53.506Z,10.48
2023-03-21T11:41:30.281Z,9.30
2023-03-21T11:43:59.404Z,8.75
2023-03-21T11:46:32.286Z,11.38
2023-03-21T11:49:01.525Z,7.00
2023-03-21T11:52:02.857Z,10.85
2023-03-21T11:55:18.170Z,7.70
2023-03-21T11:58:13.485Z,7.32
2023-03-21T12:01:02.966Z,8.73
2023-03-21T12:04:33.182Z,10.10
2023-03-21T12:07:14.542Z,6.25
2023-03-21T12:09:54.441Z,7.38
2023-03-21T12:12:38.797Z,9.95
2023-03-21T12:15:33.118Z,10.95
2023-03-21T12:18:29.899Z,8.90
2023-03-21T12:21:05.422Z,7.93
2023-03-21T12:24:02.494Z,9.38
2023-03-21T12:26:35.693Z,5.25
2023-03-21T12:29:40.331Z,7.50
2023-03-21T12:32:29.361Z,9.02
2023-03-21T12:35:10.844Z,6.82
2023-03-21T12:38:20.544Z,8.02
2023-03-21T12:41:04.326Z,6.18
2023-03-21T12:43:32.402Z,4.88
2023-03-21T12:46:04.607Z,3.72
2023-03-21T12:48:47.938Z,4.25
2023-03-21T12:51:24.529Z,2.65
2023-03-21T12:54:05.031Z,3.22
2023-03-21T12:56:45.593Z,5.22
2023-03-21T12:59:31.146Z,4.63
2023-03-21T13:04:48.093Z,3.95
2023-03-21T13:07:20.232Z,3.17
2023-03-21T13:09:48.362Z,5.57
2023-03-21T13:12:46.225Z,4.45
2023-03-21T13:15:34.277Z,2.85
2023-03-21T13:18:19.070Z,2.67
2023-03-21T13:21:13.700Z,4.05
2023-03-21T13:23:40.788Z,1.52
2023-03-21T13:26:12.600Z,5.55
2023-03-21T13:28:41.704Z,2.25
2023-03-21T13:31:24.168Z,2.78
2023-03-21T13:33:54.593Z,2.55
2023-03-21T13:36:29.044Z,2.50
2023-03-21T13:39:04.463Z,3.33
2023-03-21T13:41:43.850Z,2.53
2023-03-21T13:44:36.521Z,5.70
2023-03-21T13:47:07.384Z,3.70
2023-03-21T13:49:38.910Z,3.53
2023-03-21T13:52:28.289Z,5.82
2023-03-21T13:54:57.641Z,2.88
2023-03-21T13:57:27.430Z,5.35
2023-03-21T14:00:25.770Z,5.65
2023-03-21T14:03:13.785Z,4.57
2023-03-21T14:05:41.706Z,5.20
2023-03-21T14:08:24.829Z,6.95
2023-03-21T14:11:01.674Z,8.25
2023-03-21T14:13:33.080Z,4.93
2023-03-21T14:16:12.865Z,4.47
2023-03-21T14:18:55.012Z,5.18
2023-03-21T14:21:26.681Z,8.05
2023-03-21T14:24:20.518Z,6.30
2023-03-21T14:26:54.196Z,6.32
2023-03-21T14:29:31.842Z,6.93
2023-03-21T14:32:00.408Z,3.53
2023-03-21T14:34:30.826Z,7.32
2023-03-21T14:36:59.077Z,3.75
2023-03-21T14:39:33.184Z,8.57
2023-03-21T14:42:10.912Z,6.68
2023-03-21T14:44:58.111Z,7.20
2023-03-21T14:47:28.872Z,6.53
2023-03-21T14:49:57.440Z,8.00
2023-03-21T14:52:34.903Z,4.47
2023-03-21T14:55:07.520Z,9.00
2023-03-21T14:57:34.489Z,3.20
2023-03-21T15:00:13.064Z,6.50
2023-03-21T15:02:42.332Z,4.85
2023-03-21T15:05:14.387Z,4.97
2023-03-21T15:07:41.280Z,5.65
2023-03-21T15:10:18.221Z,6.10
2023-03-21T15:13:00.516Z,5.80
2023-03-21T15:15:29.613Z,6.15
2023-03-21T15:18:04.462Z,6.07
2023-03-21T15:20:36.057Z,9.35
2023-03-21T15:23:10.828Z,7.72
2023-03-21T15:25:39.541Z,6.15
2023-03-21T15:28:06.764Z,7.00
2023-03-21T15:30:34.656Z,9.13
2023-03-21T15:33:10.771Z,8.02
2023-03-21T15:35:46.133Z,5.40
2023-03-21T15:38:31.648Z,7.00
2023-03-21T15:44:10.258Z,13.18
2023-03-21T15:46:50.052Z,6.90
2023-03-21T15:49:16.828Z,6.03
2023-03-21T15:51:52.117Z,6.57
2023-03-21T15:54:37.211Z,6.90
2023-03-21T15:57:23.147Z,6.40
2023-03-21T15:59:51.187Z,5.35
2023-03-21T16:02:23.228Z,8.85
2023-03-21T16:05:32.522Z,6.57
2023-03-21T16:08:19.507Z,7.57
2023-03-21T16:10:46.544Z,11.88
2023-03-21T16:13:16.725Z,6.90
2023-03-21T16:15:43.996Z,10.43
2023-03-21T16:18:17.211Z,7.53
2023-03-21T16:20:46.938Z,16.58
2023-03-21T16:23:15.864Z,11.27
2023-03-21T16:25:47.121Z,6.40
2023-03-21T16:28:17.633Z,9.48
2023-03-21T16:30:45.749Z,9.93
2023-03-21T16:33:13.709Z,13.82
2023-03-21T16:35:41.623Z,10.18
2023-03-21T16:38:13.003Z,9.02
2023-03-21T16:40:42.465Z,13.48
2023-03-21T16:43:11.230Z,12.98
2023-03-21T16:45:38.259Z,13.68
2023-03-21T16:48:05.868Z,11.48
2023-03-21T16:50:41.828Z,12.30
2023-03-21T16:53:09.778Z,12.85
2023-03-21T16:55:37.631Z,15.52
2023-03-21T16:58:05.663Z,14.18
2023-03-21T17:00:32.905Z,18.15
2023-03-21T17:03:03.271Z,13.10
2023-03-21T17:05:33.806Z,19.67
2023-03-21T17:08:04.698Z,15.57
2023-03-21T17:10:32.977Z,13.77
2023-03-21T17:12:59.964Z,12.70
2023-03-21T17:15:27.097Z,16.27
2023-03-21T17:17:55.864Z,12.43
2023-03-21T17:20:38.024Z,9.52
2023-03-21T17:23:05.150Z,13.13
2023-03-21T17:25:31.952Z,14.52
2023-03-21T17:27:59.139Z,14.90
2023-03-21T17:30:35.633Z,18.63
2023-03-21T17:33:02.902Z,13.45
2023-03-21T17:35:29.792Z,13.73
2023-03-21T17:37:58.777Z,21.42
2023-03-21T17:40:29.794Z,13.10
2023-03-21T17:42:58.151Z,20.05
2023-03-21T17:45:26.019Z,11.18
2023-03-21T17:47:55.100Z,13.93
2023-03-21T17:50:26.528Z,13.60
2023-03-21T17:52:53.657Z,13.80
2023-03-21T17:55:21.436Z,13.70
2023-03-21T17:57:49.464Z,14.43
2023-03-21T18:00:22.972Z,16.17
2023-03-21T18:02:51.874Z,14.07
2023-03-21T18:05:21.698Z,11.68
2023-03-21T18:10:37.247Z,16.45
2023-03-21T18:13:04.430Z,13.32
2023-03-21T18:15:31.478Z,11.32
2023-03-21T18:17:59.212Z,12.25
2023-03-21T18:20:49.794Z,10.32
2023-03-21T18:23:15.528Z,10.55
2023-03-21T18:25:42.521Z,11.88
2023-03-21T18:28:11.875Z,8.85
2023-03-21T18:33:27.622Z,10.00
2023-03-21T18:35:59.075Z,7.75
2023-03-21T18:38:29.680Z,7.93
2023-03-21T18:40:56.847Z,9.80
2023-03-21T18:46:12.098Z,10.43
2023-03-21T18:48:39.461Z,6.95
2023-03-21T18:51:06.611Z,11.10
2023-03-21T18:53:33.654Z,7.72
2023-03-21T18:56:00.877Z,10.38
2023-03-21T18:58:29.375Z,9.25
2023-03-21T19:00:59.726Z,12.77
2023-03-21T19:03:35.730Z,10.50
2023-03-21T19:06:05.942Z,9.18
2023-03-21T19:08:34.940Z,9.48
2023-03-21T19:11:05.999Z,11.35
2023-03-21T19:13:34.133Z,9.57
2023-03-21T19:16:02.590Z,10.70
2023-03-21T19:21:19.267Z,12.68
2023-03-21T19:26:33.596Z,12.40
2023-03-21T19:29:00.441Z,12.55
2023-03-21T19:31:27.653Z,12.18
2023-03-21T19:33:54.556Z,11.90
2023-03-21T19:36:23.297Z,12.65
2023-03-21T19:38:51.378Z,14.82
2023-03-21T19:41:20.332Z,13.38
2023-03-21T19:43:54.523Z,11.02
2023-03-21T19:46:25.372Z,13.40
2023-03-21T19:48:56.564Z,13.20
2023-03-21T19:51:29.677Z,16.33
2023-03-21T19:53:58.857Z,13.65
2023-03-21T19:56:27.668Z,17.17
2023-03-21T19:58:57.765Z,14.45
2023-03-21T20:01:25.519Z,11.77
2023-03-21T20:03:53.028Z,16.70
2023-03-21T20:06:22.353Z,14.98
2023-03-21T20:09:47.122Z,17.77
2023-03-21T20:11:37.678Z,19.25
2023-03-21T20:14:05.498Z,16.58
2023-03-21T20:16:35.849Z,13.68
2023-03-21T20:19:06.217Z,13.70
2023-03-21T20:21:44.465Z,14.50
2023-03-21T20:24:16.606Z,13.55
2023-03-21T20:26:45.880Z,17.92
2023-03-21T20:32:01.232Z,14.57
2023-03-21T20:34:29.397Z,14.60
2023-03-21T20:36:58.573Z,14.35
2023-03-21T20:39:27.951Z,19.33
2023-03-21T20:41:55.534Z,14.20
2023-03-21T20:47:09.461Z,14.52
2023-03-21T20:49:37.018Z,16.45
2023-03-21T20:54:54.257Z,20.98
2023-03-21T20:57:21.479Z,17.85
2023-03-21T20:59:48.530Z,20.45
2023-03-21T21:02:16.310Z,19.25
2023-03-21T21:05:03.530Z,12.80
2023-03-21T21:07:30.099Z,21.15
2023-03-21T21:09:57.860Z,18.73
2023-03-21T21:12:28.724Z,15.55
2023-03-21T21:14:56.742Z,19.65
2023-03-21T21:17:40.655Z,17.55
2023-03-21T21:20:18.297Z,17.77
2023-03-21T21:23:00.107Z,18.55
2023-03-21T21:25:29.190Z,19.05
2023-03-21T21:27:56.375Z,19.60
2023-03-21T21:30:23.393Z,21.55
2023-03-21T21:32:50.501Z,17.95
2023-03-21T21:35:19.681Z,19.80
2023-03-21T21:37:47.131Z,22.55
2023-03-21T21:40:16.899Z,15.23
2023-03-21T21:42:44.817Z,18.75
2023-03-21T21:45:13.523Z,11.88
2023-03-21T21:47:40.991Z,20.77
2023-03-21T21:50:08.861Z,19.70
2023-03-21T21:52:37.535Z,14.57
2023-03-21T21:55:06.673Z,19.38
2023-03-21T21:57:34.769Z,17.35
2023-03-21T22:00:06.848Z,17.60
2023-03-21T22:02:34.404Z,18.58
2023-03-21T22:05:01.233Z,17.20
2023-03-21T22:07:28.552Z,14.88
2023-03-21T22:09:55.405Z,12.50
2023-03-21T22:12:22.242Z,15.30
2023-03-21T22:14:49.267Z,13.02
2023-03-21T22:17:16.464Z,12.38
2023-03-21T22:19:46.257Z,12.65
2023-03-21T22:22:22.892Z,21.92
2023-03-21T22:24:50.608Z,16.75
2023-03-21T22:27:17.985Z,11.68
2023-03-21T22:29:45.009Z,16.58
2023-03-21T22:32:11.862Z,15.63
2023-03-21T22:34:38.718Z,14.32
2023-03-21T22:37:05.693Z,16.30
2023-03-21T22:39:32.477Z,18.67
2023-03-21T22:42:01.510Z,18.23
2023-03-21T22:44:34.653Z,18.15
2023-03-21T22:47:06.970Z,14.13
2023-03-21T22:49:34.069Z,18.27
2023-03-21T22:52:03.411Z,18.35
2023-03-21T22:54:31.170Z,17.00
2023-03-21T22:56:59.022Z,20.08
2023-03-21T22:59:26.496Z,14.32
2023-03-21T23:01:53.472Z,18.23
2023-03-21T23:04:20.628Z,16.83
2023-03-21T23:06:47.536Z,18.08
2023-03-21T23:09:15.180Z,16.92
2023-03-21T23:11:43.134Z,22.02
2023-03-21T23:14:10.598Z,14.85
2023-03-21T23:16:38.547Z,18.20
2023-03-21T23:19:06.537Z,14.98
2023-03-21T23:21:35.323Z,17.17
2023-03-21T23:24:02.732Z,20.10
2023-03-21T23:26:29.512Z,17.70
2023-03-21T23:28:56.441Z,17.60
2023-03-21T23:31:27.022Z,13.20
2023-03-21T23:33:57.792Z,14.75
2023-03-21T23:36:24.791Z,20.27
2023-03-21T23:38:51.696Z,13.90
2023-03-21T23:41:23.292Z,19.60
2023-03-21T23:43:51.210Z,15.60
2023-03-21T23:46:19.298Z,23.13
2023-03-21T23:48:47.457Z,17.85
2023-03-21T23:51:17.410Z,18.50
2023-03-21T23:53:46.881Z,17.10
2023-03-21T23:56:21.213Z,16.67
2023-03-21T23:58:52.193Z,18.30
